Latest Weather Observations for Mount Isa

IDQ60801

Issued at 9:32 am EST Sunday 22 January 2017 (issued every 30 minutes, with the page automatically refreshed every 10 minutes)

About weather observations | Map of weather stations | Latest weather observations for QLD | Other Formats
Station Details ID: 029127 Name: MOUNT ISA AERO Lat: -20.68 Lon: 139.49 Height: 340.3 m
Data from the previous 72 hours. | See also: Recent months at Mount Isa
Date/Time
EST
Temp
°C
App
Temp
°C
Dew
Point
°C
Rel
Hum
%
Delta-T
°C
Wind Press
QNH
hPa
Press
MSL
hPa
Rain since
9am
mm
Dir  Spd
km/h
Gust
km/h
Spd
kts
Gust
kts
22/09:30am 32.4 36.0 21.3 52 7.6 NE 4 11 2 6 1011.1 1008.5 0.0
22/09:00am 31.5 34.2 21.4 55 6.9 N 9 15 5 8 1011.2 1008.6 0.0
22/08:30am 30.8 34.8 21.3 57 6.5 W 2 9 1 5 1011.3 1008.7 0.0
22/08:00am 30.5 33.3 21.6 59 6.1 NNW 9 13 5 7 1011.2 1008.6 0.0
22/07:30am 29.4 33.6 22.4 66 4.8 NNW 4 9 2 5 1011.0 1008.4 0.0
22/07:00am 28.1 32.6 23.7 77 3.1 E 6 7 3 4 1010.5 1007.9 0.0
22/06:30am 26.2 30.5 22.7 81 2.4 ENE 4 7 2 4 1010.0 1007.4 0.0
22/06:00am 26.6 31.5 22.4 78 2.9 CALM 0 0 0 0 1009.6 1006.9 0.0
22/05:30am 26.4 29.6 22.3 78 2.8 NNW 9 11 5 6 1009.3 1006.6 0.0
22/05:00am 26.7 31.5 22.1 76 3.1 CALM 0 0 0 0 1009.2 1006.5 0.0
22/04:30am 27.1 30.7 22.3 75 3.3 SE 7 9 4 5 1009.3 1006.6 0.0
22/04:00am 26.5 31.4 22.3 78 2.9 CALM 0 0 0 0 1009.1 1006.4 0.0
22/03:30am 26.4 30.3 21.8 76 3.1 S 4 7 2 4 1008.9 1006.2 0.0
22/03:00am 26.6 29.7 21.4 73 3.5 SSE 7 11 4 6 1008.8 1006.1 0.0
22/02:30am 27.6 29.9 21.4 69 4.2 S 11 11 6 6 1008.8 1006.1 0.0
22/02:00am 27.8 30.5 21.3 67 4.4 SSW 9 11 5 6 1009.1 1006.4 0.0
22/01:30am 28.0 29.4 21.1 66 4.6 S 15 19 8 10 1009.3 1006.6 0.0
22/01:00am 28.1 30.0 21.4 67 4.5 S 13 15 7 8 1009.9 1007.3 0.0
22/12:30am 28.3 29.8 21.3 65 4.7 S 15 17 8 9 1010.2 1007.6 0.0
22/12:00am 29.3 31.4 21.0 61 5.6 SSE 11 15 6 8 1010.3 1007.7 0.0
 
Date/Time
EST
Temp
°C
App
Temp
°C
Dew
Point
°C
Rel
Hum
%
Delta-T
°C
Wind Press
QNH
hPa
Press
MSL
hPa
Rain since
9am
mm
Dir  Spd
km/h
Gust
km/h
Spd
kts
Gust
kts
21/11:30pm 30.2 31.9 21.0 58 6.2 SSW 13 17 7 9 1010.4 1007.8 0.0
21/11:00pm 30.3 32.8 21.1 58 6.2 SW 9 15 5 8 1010.3 1007.7 0.0
21/10:30pm 30.2 33.0 21.6 60 5.9 SSW 9 11 5 6 1010.1 1007.5 0.0
21/10:00pm 30.2 33.4 21.3 59 6.0 SW 6 7 3 4 1009.8 1007.2 0.0
21/09:30pm 31.0 33.8 20.9 55 6.8 SE 7 11 4 6 1009.8 1007.2 0.0
21/09:00pm 31.5 33.7 20.4 51 7.5 S 9 13 5 7 1009.3 1006.6 0.0
21/08:30pm 31.8 34.2 20.1 50 7.8 E 7 9 4 5 1008.6 1005.9 0.0
21/08:00pm 32.7 34.0 19.2 44 9.0 NE 11 13 6 7 1008.1 1005.5 0.0
21/07:30pm 33.6 34.7 18.9 41 9.7 NE 11 13 6 7 1007.5 1004.9 0.0
21/07:00pm 34.7 35.0 17.9 37 11.0 NNE 13 17 7 9 1007.2 1004.6 0.0
21/06:30pm 35.8 35.7 17.9 34 11.8 N 15 22 8 12 1006.9 1004.2 0.0
21/06:00pm 36.3 36.4 17.4 32 12.4 N 13 17 7 9 1006.5 1003.8 0.0
21/05:30pm 36.8 36.9 17.4 32 12.7 NNE 13 19 7 10 1006.4 1003.7 0.0
21/05:00pm 36.3 36.2 17.0 32 12.6 E 13 17 7 9 1006.2 1003.5 0.0
21/04:30pm 36.9 36.6 16.5 30 13.2 E 13 22 7 12 1006.3 1003.6 0.0
21/04:00pm 37.2 36.6 15.6 27 13.9 E 13 22 7 12 1006.7 1004.0 0.0
21/03:30pm 37.2 38.2 17.7 31 12.8 N 9 19 5 10 1006.9 1004.2 0.0
21/03:00pm 37.4 37.5 17.4 30 13.2 NE 13 28 7 15 1007.3 1004.7 0.0
21/02:30pm 35.9 37.2 17.6 34 12.0 S 7 11 4 6 1008.0 1005.4 0.0
21/02:00pm 36.0 38.1 19.0 36 11.4 W 6 11 3 6 1008.4 1005.8 0.0
21/01:30pm 35.1 36.1 17.8 36 11.3 S 9 17 5 9 1009.0 1006.3 0.0
21/01:00pm 35.5 37.0 19.0 37 11.0 ESE 9 15 5 8 1009.3 1006.6 0.0
21/12:30pm 35.4 37.8 20.1 40 10.3 S 7 11 4 6 1009.5 1006.8 0.0
21/12:00pm 33.8 36.5 20.6 46 9.0 NNW 7 11 4 6 1009.9 1007.3 0.0
21/11:30am 34.4 36.4 20.0 42 9.7 N 9 17 5 9 1010.5 1007.9 0.0
21/11:00am 34.4 36.0 20.7 44 9.3 WNW 13 20 7 11 1010.8 1008.2 0.0
21/10:30am 32.9 34.8 21.4 50 7.9 WNW 13 19 7 10 1011.0 1008.4 0.0
21/10:00am 32.5 34.7 23.2 58 6.5 W 17 26 9 14 1011.1 1008.5 0.0
21/09:30am 31.7 33.6 23.5 62 5.7 W 19 26 10 14 1011.4 1008.8 0.0
21/09:00am 30.8 32.4 23.2 64 5.3 W 20 28 11 15 1011.2 1008.6 0.0
21/08:30am 29.7 32.4 23.4 69 4.4 W 15 24 8 13 1011.2 1008.6 0.0
21/08:00am 28.9 31.5 23.3 72 3.9 WNW 15 20 8 11 1011.1 1008.5 0.0
21/07:30am 28.0 31.0 23.4 76 3.2 WNW 13 17 7 9 1010.8 1008.2 0.0
21/07:00am 26.9 30.4 23.6 82 2.3 NNW 11 15 6 8 1010.5 1007.9 0.0
21/06:30am 26.1 29.9 23.4 85 1.9 NNW 9 11 5 6 1010.2 1007.6 0.0
21/06:00am 26.0 29.6 23.1 84 2.0 NNW 9 11 5 6 1009.9 1007.3 0.0
21/05:35am 26.1 29.3 23.0 83 2.1 NNW 11 15 6 8 1009.7 1007.0 0.0
21/05:30am 26.1 29.7 23.0 83 2.1 NNW 9 13 5 7 1009.6 1006.9 0.0
21/05:15am 25.8 29.4 22.3 81 2.4 NW 7 11 4 6 1009.4 1006.7 0.0
21/05:00am 26.0 29.3 21.9 78 2.8 N 7 9 4 5 1009.3 1006.6 0.0
21/04:30am 26.2 29.4 21.6 76 3.1 N 7 9 4 5 1008.8 1006.1 0.0
21/04:00am 26.4 29.2 21.6 75 3.2 N 9 11 5 6 1008.6 1005.9 0.0
21/03:30am 26.1 28.9 21.5 76 3.1 N 9 11 5 6 1008.6 1005.9 0.0
21/03:00am 26.1 29.1 21.3 75 3.2 NNE 7 9 4 5 1008.6 1005.9 0.0
21/02:30am 26.8 28.9 20.9 70 3.9 N 11 13 6 7 1008.6 1005.9 0.0
21/02:00am 26.9 29.8 21.0 70 4.0 NNW 7 13 4 7 1009.0 1006.3 0.0
21/01:30am 26.8 29.9 21.1 71 3.8 NW 6 6 3 3 1009.2 1006.5 0.0
21/01:00am 27.1 31.3 20.9 69 4.2 CALM 0 0 0 0 1009.5 1006.8 0.0
21/12:30am 27.5 29.9 20.8 67 4.5 N 9 13 5 7 1009.5 1006.8 0.0
21/12:00am 28.4 30.8 20.9 64 5.0 N 9 11 5 6 1009.4 1006.7 0.0
 
Date/Time
EST
Temp
°C
App
Temp
°C
Dew
Point
°C
Rel
Hum
%
Delta-T
°C
Wind Press
QNH
hPa
Press
MSL
hPa
Rain since
9am
mm
Dir  Spd
km/h
Gust
km/h
Spd
kts
Gust
kts
20/11:30pm 28.8 31.5 21.3 64 5.1 NW 9 11 5 6 1009.6 1006.9 0.0
20/11:00pm 29.6 31.6 20.7 58 6.0 NE 11 13 6 7 1009.4 1006.7 0.0
20/10:30pm 30.5 31.7 20.7 55 6.6 NE 15 19 8 10 1009.0 1006.3 0.0
20/10:00pm 30.9 31.6 20.5 54 7.0 NE 17 26 9 14 1008.8 1006.1 0.0
20/09:30pm 31.5 32.6 20.4 51 7.5 ENE 15 19 8 10 1008.2 1005.6 0.0
20/09:00pm 31.8 33.4 20.7 51 7.5 ENE 13 19 7 10 1007.9 1005.3 0.0
20/08:30pm 31.3 33.5 21.2 55 6.9 ENE 11 13 6 7 1007.4 1004.8 0.0
20/08:00pm 31.9 34.1 20.5 51 7.7 ENE 9 11 5 6 1007.0 1004.3 0.0
20/07:30pm 32.7 34.7 19.9 46 8.6 ENE 9 11 5 6 1006.7 1004.0 0.0
20/07:00pm 33.6 35.3 19.3 43 9.5 NE 9 13 5 7 1006.3 1003.6 0.0
20/06:30pm 34.4 35.5 18.8 39 10.3 NNE 11 15 6 8 1005.8 1003.1 0.0
20/06:00pm 35.2 36.1 18.3 36 11.2 NNE 11 17 6 9 1005.6 1002.9 0.0
20/05:30pm 35.2 36.3 17.9 36 11.4 NNE 9 13 5 7 1005.9 1003.2 0.0
20/05:00pm 35.6 36.8 18.2 35 11.5 ENE 9 15 5 8 1005.9 1003.2 0.0
20/04:30pm 35.7 36.2 17.4 33 12.0 NE 11 17 6 9 1006.0 1003.3 0.0
20/04:00pm 35.8 36.7 17.5 34 12.0 ENE 9 15 5 8 1006.3 1003.6 0.0
20/03:30pm 35.7 36.2 18.3 35 11.5 NNE 13 20 7 11 1006.6 1003.9 0.0
20/03:00pm 36.2 36.7 18.3 34 11.9 N 13 22 7 12 1006.8 1004.1 0.0
20/02:30pm 36.0 36.2 17.7 34 12.0 NNE 13 20 7 11 1007.4 1004.8 0.0
20/02:00pm 35.6 36.8 18.2 35 11.5 E 9 15 5 8 1007.7 1005.1 0.0
20/01:30pm 36.1 38.1 19.9 38 10.9 WNW 9 13 5 7 1007.9 1005.3 0.0
20/01:00pm 35.4 35.6 17.6 35 11.7 NNW 13 22 7 12 1008.2 1005.6 0.0
20/12:30pm 33.8 35.6 19.5 43 9.6 NW 9 17 5 9 1008.9 1006.2 0.0
20/12:00pm 34.4 36.7 20.7 44 9.3 W 9 17 5 9 1009.3 1006.6 0.0
20/11:30am 33.5 35.8 22.0 51 7.9 WNW 13 24 7 13 1009.9 1007.3 0.0
20/11:00am 33.2 35.3 21.7 51 7.9 W 13 22 7 12 1010.2 1007.6 0.0
20/10:30am 32.6 35.1 22.4 55 7.1 W 13 22 7 12 1010.5 1007.9 0.0
20/10:00am 31.8 33.0 22.2 56 6.6 NW 19 26 10 14 1010.4 1007.8 0.0
20/09:30am 31.0 32.7 22.3 60 6.0 WNW 17 28 9 15 1010.6 1008.0 0.0
20/09:00am 30.3 32.2 22.7 64 5.3 NW 17 26 9 14 1010.5 1007.9 0.0
20/08:30am 29.2 31.5 22.7 68 4.5 NW 15 19 8 10 1010.3 1007.7 0.0
20/08:00am 28.3 30.3 23.0 73 3.7 NNW 17 28 9 15 1010.2 1007.6 0.0
20/07:30am 26.9 30.4 23.6 82 2.3 NNW 11 19 6 10 1010.1 1007.5 0.0
20/07:00am 26.0 29.7 23.3 85 1.9 NW 9 13 5 7 1009.8 1007.2 0.0
20/06:30am 26.1 30.2 24.0 88 1.5 NW 9 15 5 8 1009.4 1006.7 0.0
20/06:00am 25.5 29.6 23.9 91 1.1 N 9 11 5 6 1009.2 1006.5 0.0
20/05:30am 25.6 30.3 23.3 87 1.6 NW 4 7 2 4 1008.6 1005.9 0.0
20/05:00am 25.9 31.5 23.6 87 1.6 CALM 0 4 0 2 1008.4 1005.8 0.0
20/04:30am 25.6 29.8 23.1 86 1.7 NNW 6 7 3 4 1008.4 1005.8 0.0
20/04:00am 25.8 29.3 22.9 84 2.0 N 9 11 5 6 1008.4 1005.8 0.0
20/03:30am 26.0 29.1 22.9 83 2.1 N 11 11 6 6 1008.3 1005.7 0.0
20/03:00am 25.8 29.1 22.5 82 2.3 NNW 9 11 5 6 1008.1 1005.5 0.0
20/02:30am 25.7 29.3 22.0 80 2.5 NW 6 11 3 6 1007.8 1005.2 0.0
20/02:00am 25.6 30.5 22.3 82 2.2 CALM 0 0 0 0 1007.8 1005.2 0.0
20/01:30am 26.0 29.5 22.1 79 2.6 NNW 7 9 4 5 1008.0 1005.4 0.0
20/01:00am 25.9 29.8 21.8 78 2.8 NNW 4 7 2 4 1008.4 1005.8 0.0
20/12:30am 26.4 31.1 22.0 77 3.0 CALM 0 0 0 0 1008.8 1006.1 0.0
20/12:00am 26.8 31.7 22.4 77 3.0 CALM 0 0 0 0 1008.9 1006.2 0.0
 
Date/Time
EST
Temp
°C
App
Temp
°C
Dew
Point
°C
Rel
Hum
%
Delta-T
°C
Wind Press
QNH
hPa
Press
MSL
hPa
Rain since
9am
mm
Dir  Spd
km/h
Gust
km/h
Spd
kts
Gust
kts
19/11:30pm 27.2 32.1 22.4 75 3.3 CALM 0 0 0 0 1009.0 1006.3 0.0
19/11:00pm 27.5 30.9 22.7 75 3.3 NNW 9 9 5 5 1008.8 1006.1 0.0
19/10:30pm 27.7 32.6 22.4 73 3.6 CALM 0 0 0 0 1009.0 1006.3 0.0
19/10:00pm 28.2 32.3 22.2 70 4.1 W 4 7 2 4 1008.9 1006.2 0.0
19/09:30pm 28.3 31.4 22.1 69 4.2 WNW 9 11 5 6 1008.8 1006.1 0.0
19/09:00pm 28.6 30.2 21.4 65 4.9 WSW 15 20 8 11 1008.9 1006.2 0.0
19/08:30pm 30.4 30.5 21.2 58 6.2 WSW 22 30 12 16 1008.6 1005.9 0.0
19/08:00pm 32.0 34.2 21.2 52 7.4 NNW 11 17 6 9 1007.4 1004.8 0.0
19/07:30pm 32.7 33.6 20.9 49 8.0 N 17 20 9 11 1006.9 1004.2 0.0
19/07:00pm 33.5 35.4 20.6 46 8.8 NNE 11 11 6 6 1006.5 1003.8 0.0
19/06:30pm 34.2 36.1 20.6 45 9.2 NE 11 15 6 8 1006.5 1003.8 0.0
19/06:00pm 35.6 37.4 19.5 38 10.8 NNE 9 17 5 9 1006.4 1003.7 0.0
19/05:30pm 35.5 36.5 19.4 38 10.8 NNE 13 17 7 9 1006.4 1003.7 0.0
19/05:00pm 36.0 37.2 19.0 36 11.4 NNE 11 17 6 9 1006.7 1004.0 0.0
19/04:30pm 34.5 36.6 20.1 43 9.7 NNE 9 15 5 8 1007.0 1004.3 0.0
19/04:00pm 35.1 37.1 19.9 41 10.3 N 9 15 5 8 1007.3 1004.7 0.0
19/03:30pm 35.9 38.2 19.8 39 10.9 ENE 7 15 4 8 1007.7 1005.1 0.0
19/03:00pm 35.4 37.1 20.1 40 10.4 NNW 11 15 6 8 1008.4 1005.8 0.0
19/02:30pm 35.9 37.2 19.3 37 11.1 NE 11 20 6 11 1009.1 1006.4 0.0
19/02:00pm 36.1 37.9 21.1 41 10.3 WNW 13 17 7 9 1009.6 1006.9 0.0
19/01:30pm 34.8 36.4 20.0 42 10.0 NE 11 19 6 10 1009.9 1007.3 0.0
19/01:00pm 34.5 37.3 20.8 44 9.3 W 7 13 4 7 1010.4 1007.8 0.0
19/12:30pm 35.3 37.3 20.8 42 9.9 WNW 11 17 6 9 1010.7 1008.1 0.0
19/12:00pm 33.7 35.8 20.1 44 9.2 N 9 15 5 8 1011.2 1008.6 0.0
19/11:30am 32.8 34.7 21.3 50 7.8 NNW 13 28 7 15 1011.6 1008.9 0.0
19/11:00am 32.0 34.2 21.2 52 7.4 NW 11 24 6 13 1011.9 1009.2 0.0
19/10:30am 31.8 33.8 21.6 54 7.0 WNW 13 20 7 11 1012.3 1009.6 0.0
19/10:00am 31.4 33.3 22.7 60 6.0 WNW 17 24 9 13 1012.6 1010.0 0.0

Other Formats:

Comma delimited format used in spreadsheet applications
http://www.bom.gov.au/fwo/IDQ60801/IDQ60801.94332.axf

JavaScript Object Notation format (JSON) in row-major order
http://www.bom.gov.au/fwo/IDQ60801/IDQ60801.94332.json